19:34
Airports
History
Links
Donate
Help keep this website running!
PayPal
Bitcoin
Information on this page is community maintained and may be outdated or inaccurate and is intended for reference only or PC simulator navigating!
Always use approved charts for navigating.
CT08
Gardner Lake
Gardner Lake (CT08)
Salem, Connecticut, United States (6420)
4
Lat/Lng:41° 30' 29.35" N / 72° 14' 37.29" W
41.508154 / -72.243691
Elevation:485'ft 148mMSL
ID / ICAO:CT08
Runways:1
Longest:(16-34) 579.4m 1,901ft Grass
Distance To
Airport ID:
Nearby VORs <50NM
Nearby NDBs
Nearby WeatherUpdated 04-29-17 18:56 GMT
Nearby weather at KGON, Groton-new London located 16.0 nautical miles from CT08
Altimeter: 29.88
Visibility: 10.0 statute miles
Wind: 12 knots (240°)
Temp: 24°c 75°f
Humidity: 64.9%

METAR: KGON 291856Z 24012G20KT 10SM BR CLR 24/17 A2988 RMK AO2 SLP118 T02390167

(Powered by phpweather)
Runway 16 / 34
Dimensions:579.4 x 18.3m 1901' x 60'ft
Surface:Grass
Runway 16 [A]Runway 34 [B]
Heading:145°TH 325°TH
Lat:
Lng:
41° 30' 37.13"N
72° 14' 44.29"W
41° 30' 21.58"N
72° 14' 30.28"W
Google Map
Nearby Airports
(R) Gager Field 4.6 NM
CT36 NNE 31°
(R) Skis Landing Area 5.5 NM
CT07 NW 325°
(R) Devils Hopyard Field 6.6 NM
CT11 SW 228°
(R) Rankl Field 11.7 NM
CT20 WNW 303°
4 Salmon River Airfield 11.7 NM
9B8 WNW 298°
(U) Goodspeed 11.8 NM
42B WSW 248°
(C) Groton-new London 16.0 NM
KGON (WX) SE 140°
VFR Chart
Flight Planning at SkyVector.com